sensor_id;sensor_type;location;lat;lon;timestamp;P1;durP1;ratioP1;P2;durP2;ratioP2
68825;SDS011;55841;53.392;10.086;2022-09-12T00:00:48;5.03;;;2.30;;
68825;SDS011;55841;53.392;10.086;2022-09-12T00:03:14;6.18;;;2.50;;
68825;SDS011;55841;53.392;10.086;2022-09-12T00:05:40;7.38;;;2.47;;
68825;SDS011;55841;53.392;10.086;2022-09-12T00:08:06;6.50;;;2.72;;
68825;SDS011;55841;53.392;10.086;2022-09-12T00:10:35;6.25;;;2.42;;
68825;SDS011;55841;53.392;10.086;2022-09-12T00:13:02;6.85;;;2.85;;
68825;SDS011;55841;53.392;10.086;2022-09-12T00:15:27;8.85;;;2.75;;
68825;SDS011;55841;53.392;10.086;2022-09-12T00:17:53;5.93;;;2.50;;
68825;SDS011;55841;53.392;10.086;2022-09-12T00:20:18;6.88;;;2.80;;
68825;SDS011;55841;53.392;10.086;2022-09-12T00:22:44;6.30;;;2.47;;
68825;SDS011;55841;53.392;10.086;2022-09-12T00:25:09;6.95;;;2.70;;
68825;SDS011;55841;53.392;10.086;2022-09-12T00:27:35;7.28;;;2.75;;
68825;SDS011;55841;53.392;10.086;2022-09-12T00:30:00;4.93;;;2.30;;
68825;SDS011;55841;53.392;10.086;2022-09-12T00:32:26;6.95;;;2.80;;
68825;SDS011;55841;53.392;10.086;2022-09-12T00:34:51;5.53;;;2.22;;
68825;SDS011;55841;53.392;10.086;2022-09-12T00:37:17;6.38;;;2.67;;
68825;SDS011;55841;53.392;10.086;2022-09-12T00:39:42;7.43;;;2.58;;
68825;SDS011;55841;53.392;10.086;2022-09-12T00:42:08;5.78;;;2.42;;
68825;SDS011;55841;53.392;10.086;2022-09-12T00:52:13;7.15;;;2.72;;
68825;SDS011;55841;53.392;10.086;2022-09-12T00:57:17;5.13;;;2.20;;
68825;SDS011;55841;53.392;10.086;2022-09-12T00:59:46;6.22;;;2.35;;
68825;SDS011;55841;53.392;10.086;2022-09-12T01:02:14;6.22;;;2.40;;
68825;SDS011;55841;53.392;10.086;2022-09-12T01:07:07;5.93;;;2.50;;
68825;SDS011;55841;53.392;10.086;2022-09-12T01:09:32;7.18;;;2.55;;
68825;SDS011;55841;53.392;10.086;2022-09-12T01:12:00;8.35;;;2.70;;
68825;SDS011;55841;53.392;10.086;2022-09-12T01:14:26;6.30;;;2.65;;
68825;SDS011;55841;53.392;10.086;2022-09-12T01:16:53;7.70;;;2.60;;
68825;SDS011;55841;53.392;10.086;2022-09-12T01:29:40;4.82;;;2.35;;
68825;SDS011;55841;53.392;10.086;2022-09-12T01:32:31;5.75;;;2.15;;
68825;SDS011;55841;53.392;10.086;2022-09-12T01:38:04;6.05;;;2.38;;
68825;SDS011;55841;53.392;10.086;2022-09-12T01:40:48;5.13;;;2.40;;
68825;SDS011;55841;53.392;10.086;2022-09-12T01:46:23;6.30;;;2.47;;
68825;SDS011;55841;53.392;10.086;2022-09-12T01:51:55;6.75;;;2.67;;
68825;SDS011;55841;53.392;10.086;2022-09-12T01:54:32;6.38;;;2.58;;
68825;SDS011;55841;53.392;10.086;2022-09-12T01:57:10;6.68;;;2.47;;
68825;SDS011;55841;53.392;10.086;2022-09-12T01:59:47;6.90;;;2.53;;
68825;SDS011;55841;53.392;10.086;2022-09-12T02:02:16;7.35;;;2.53;;
68825;SDS011;55841;53.392;10.086;2022-09-12T02:05:06;7.22;;;2.70;;
68825;SDS011;55841;53.392;10.086;2022-09-12T02:07:43;6.50;;;2.53;;
68825;SDS011;55841;53.392;10.086;2022-09-12T02:10:24;5.68;;;2.25;;
68825;SDS011;55841;53.392;10.086;2022-09-12T02:12:56;5.55;;;2.33;;
68825;SDS011;55841;53.392;10.086;2022-09-12T02:15:26;6.13;;;2.53;;
68825;SDS011;55841;53.392;10.086;2022-09-12T02:20:26;5.78;;;2.30;;
68825;SDS011;55841;53.392;10.086;2022-09-12T02:22:55;5.30;;;2.40;;
68825;SDS011;55841;53.392;10.086;2022-09-12T02:25:22;7.18;;;2.45;;
68825;SDS011;55841;53.392;10.086;2022-09-12T02:27:50;6.43;;;2.72;;
68825;SDS011;55841;53.392;10.086;2022-09-12T02:30:20;5.78;;;2.53;;
68825;SDS011;55841;53.392;10.086;2022-09-12T02:35:33;5.50;;;2.35;;
68825;SDS011;55841;53.392;10.086;2022-09-12T02:38:10;7.18;;;2.65;;
68825;SDS011;55841;53.392;10.086;2022-09-12T02:40:43;6.85;;;2.47;;
68825;SDS011;55841;53.392;10.086;2022-09-12T02:43:09;5.68;;;2.63;;
68825;SDS011;55841;53.392;10.086;2022-09-12T02:45:34;6.88;;;3.17;;
68825;SDS011;55841;53.392;10.086;2022-09-12T02:50:29;5.40;;;2.40;;
68825;SDS011;55841;53.392;10.086;2022-09-12T02:52:56;6.05;;;2.22;;
68825;SDS011;55841;53.392;10.086;2022-09-12T02:55:22;6.07;;;2.35;;
68825;SDS011;55841;53.392;10.086;2022-09-12T02:57:47;5.50;;;2.33;;
68825;SDS011;55841;53.392;10.086;2022-09-12T03:00:13;7.00;;;2.30;;
68825;SDS011;55841;53.392;10.086;2022-09-12T03:05:33;5.78;;;2.38;;
68825;SDS011;55841;53.392;10.086;2022-09-12T03:13:47;6.03;;;2.45;;
68825;SDS011;55841;53.392;10.086;2022-09-12T03:29:39;8.65;;;2.63;;
68825;SDS011;55841;53.392;10.086;2022-09-12T03:32:06;6.05;;;2.30;;
68825;SDS011;55841;53.392;10.086;2022-09-12T03:34:31;5.70;;;2.45;;
68825;SDS011;55841;53.392;10.086;2022-09-12T03:36:57;4.97;;;2.22;;
68825;SDS011;55841;53.392;10.086;2022-09-12T03:39:23;5.68;;;2.15;;
68825;SDS011;55841;53.392;10.086;2022-09-12T03:41:49;6.40;;;2.38;;
68825;SDS011;55841;53.392;10.086;2022-09-12T03:44:16;6.72;;;2.35;;
68825;SDS011;55841;53.392;10.086;2022-09-12T03:46:41;6.32;;;2.40;;
68825;SDS011;55841;53.392;10.086;2022-09-12T03:49:07;6.03;;;2.50;;
68825;SDS011;55841;53.392;10.086;2022-09-12T03:51:33;6.97;;;2.40;;
68825;SDS011;55841;53.392;10.086;2022-09-12T03:53:58;7.57;;;2.33;;
68825;SDS011;55841;53.392;10.086;2022-09-12T03:56:24;5.00;;;2.28;;
68825;SDS011;55841;53.392;10.086;2022-09-12T03:58:49;6.80;;;2.65;;
68825;SDS011;55841;53.392;10.086;2022-09-12T04:01:16;6.32;;;2.63;;
68825;SDS011;55841;53.392;10.086;2022-09-12T04:03:43;7.43;;;2.20;;
68825;SDS011;55841;53.392;10.086;2022-09-12T04:06:11;7.07;;;2.72;;
68825;SDS011;55841;53.392;10.086;2022-09-12T04:08:38;5.63;;;2.38;;
68825;SDS011;55841;53.392;10.086;2022-09-12T04:11:05;4.97;;;2.33;;
68825;SDS011;55841;53.392;10.086;2022-09-12T04:13:36;4.90;;;2.20;;
68825;SDS011;55841;53.392;10.086;2022-09-12T04:16:02;5.00;;;2.28;;
68825;SDS011;55841;53.392;10.086;2022-09-12T04:18:28;4.25;;;2.10;;
68825;SDS011;55841;53.392;10.086;2022-09-12T04:20:54;7.43;;;2.40;;
68825;SDS011;55841;53.392;10.086;2022-09-12T04:23:19;5.85;;;2.42;;
68825;SDS011;55841;53.392;10.086;2022-09-12T04:25:52;7.63;;;2.58;;
68825;SDS011;55841;53.392;10.086;2022-09-12T04:28:22;7.15;;;2.45;;
68825;SDS011;55841;53.392;10.086;2022-09-12T04:30:48;5.35;;;2.30;;
68825;SDS011;55841;53.392;10.086;2022-09-12T04:33:14;4.80;;;2.28;;
68825;SDS011;55841;53.392;10.086;2022-09-12T04:35:39;4.70;;;2.05;;
68825;SDS011;55841;53.392;10.086;2022-09-12T04:38:05;7.05;;;2.40;;
68825;SDS011;55841;53.392;10.086;2022-09-12T04:40:31;7.75;;;2.50;;
68825;SDS011;55841;53.392;10.086;2022-09-12T04:42:57;5.43;;;2.30;;
68825;SDS011;55841;53.392;10.086;2022-09-12T04:45:22;6.38;;;2.45;;
68825;SDS011;55841;53.392;10.086;2022-09-12T04:47:48;5.30;;;2.30;;
68825;SDS011;55841;53.392;10.086;2022-09-12T04:50:13;6.70;;;2.55;;
68825;SDS011;55841;53.392;10.086;2022-09-12T04:52:40;5.70;;;2.50;;
68825;SDS011;55841;53.392;10.086;2022-09-12T04:55:06;6.15;;;2.20;;
68825;SDS011;55841;53.392;10.086;2022-09-12T04:57:32;7.07;;;2.60;;
68825;SDS011;55841;53.392;10.086;2022-09-12T04:59:58;8.65;;;2.60;;
68825;SDS011;55841;53.392;10.086;2022-09-12T05:02:23;7.95;;;2.55;;
68825;SDS011;55841;53.392;10.086;2022-09-12T05:04:49;7.95;;;2.80;;
68825;SDS011;55841;53.392;10.086;2022-09-12T05:07:14;6.70;;;2.63;;
68825;SDS011;55841;53.392;10.086;2022-09-12T05:09:40;7.88;;;2.78;;
68825;SDS011;55841;53.392;10.086;2022-09-12T05:12:05;7.47;;;2.70;;
68825;SDS011;55841;53.392;10.086;2022-09-12T05:14:31;6.28;;;2.60;;
68825;SDS011;55841;53.392;10.086;2022-09-12T05:19:23;6.95;;;2.30;;
68825;SDS011;55841;53.392;10.086;2022-09-12T05:21:49;6.65;;;2.20;;
68825;SDS011;55841;53.392;10.086;2022-09-12T05:24:14;8.15;;;2.25;;
68825;SDS011;55841;53.392;10.086;2022-09-12T05:26:40;7.80;;;2.65;;
68825;SDS011;55841;53.392;10.086;2022-09-12T05:29:05;8.35;;;2.60;;
68825;SDS011;55841;53.392;10.086;2022-09-12T05:31:31;7.53;;;2.83;;
68825;SDS011;55841;53.392;10.086;2022-09-12T05:33:57;6.78;;;2.65;;
68825;SDS011;55841;53.392;10.086;2022-09-12T05:36:29;11.05;;;3.10;;
68825;SDS011;55841;53.392;10.086;2022-09-12T05:38:55;10.38;;;3.42;;
68825;SDS011;55841;53.392;10.086;2022-09-12T05:41:22;8.07;;;3.03;;
68825;SDS011;55841;53.392;10.086;2022-09-12T05:43:52;9.68;;;2.90;;
68825;SDS011;55841;53.392;10.086;2022-09-12T05:49:44;8.57;;;2.97;;
68825;SDS011;55841;53.392;10.086;2022-09-12T05:59:58;10.18;;;3.72;;
68825;SDS011;55841;53.392;10.086;2022-09-12T06:02:26;9.48;;;3.40;;
68825;SDS011;55841;53.392;10.086;2022-09-12T06:18:10;12.45;;;4.15;;
68825;SDS011;55841;53.392;10.086;2022-09-12T07:38:56;10.52;;;4.57;;
68825;SDS011;55841;53.392;10.086;2022-09-12T07:41:23;9.98;;;4.07;;
68825;SDS011;55841;53.392;10.086;2022-09-12T07:43:51;10.95;;;3.80;;
68825;SDS011;55841;53.392;10.086;2022-09-12T07:46:21;9.10;;;4.03;;
68825;SDS011;55841;53.392;10.086;2022-09-12T07:48:50;8.98;;;3.75;;
68825;SDS011;55841;53.392;10.086;2022-09-12T07:51:17;10.25;;;4.28;;
68825;SDS011;55841;53.392;10.086;2022-09-12T08:01:29;10.50;;;4.38;;
68825;SDS011;55841;53.392;10.086;2022-09-12T08:03:55;10.55;;;3.92;;
68825;SDS011;55841;53.392;10.086;2022-09-12T08:06:22;10.50;;;4.25;;
68825;SDS011;55841;53.392;10.086;2022-09-12T08:08:48;9.20;;;4.40;;
68825;SDS011;55841;53.392;10.086;2022-09-12T08:11:15;10.05;;;5.00;;
68825;SDS011;55841;53.392;10.086;2022-09-12T08:13:43;10.13;;;4.50;;
68825;SDS011;55841;53.392;10.086;2022-09-12T08:16:16;10.05;;;4.88;;
68825;SDS011;55841;53.392;10.086;2022-09-12T08:18:43;9.00;;;3.95;;
68825;SDS011;55841;53.392;10.086;2022-09-12T08:21:13;8.63;;;3.45;;
68825;SDS011;55841;53.392;10.086;2022-09-12T08:23:40;8.75;;;3.47;;
68825;SDS011;55841;53.392;10.086;2022-09-12T08:26:07;8.23;;;3.50;;
68825;SDS011;55841;53.392;10.086;2022-09-12T08:28:34;8.90;;;3.63;;
68825;SDS011;55841;53.392;10.086;2022-09-12T08:31:04;8.38;;;3.75;;
68825;SDS011;55841;53.392;10.086;2022-09-12T08:33:34;8.38;;;3.67;;
68825;SDS011;55841;53.392;10.086;2022-09-12T08:36:03;9.68;;;3.50;;
68825;SDS011;55841;53.392;10.086;2022-09-12T08:38:31;7.50;;;3.05;;
68825;SDS011;55841;53.392;10.086;2022-09-12T08:41:06;9.10;;;3.35;;
68825;SDS011;55841;53.392;10.086;2022-09-12T08:46:52;8.90;;;3.55;;
68825;SDS011;55841;53.392;10.086;2022-09-12T08:49:10;7.43;;;3.05;;
68825;SDS011;55841;53.392;10.086;2022-09-12T09:51:23;3.67;;;1.60;;
68825;SDS011;55841;53.392;10.086;2022-09-12T09:54:20;3.90;;;1.60;;
68825;SDS011;55841;53.392;10.086;2022-09-12T09:56:52;4.05;;;1.70;;
68825;SDS011;55841;53.392;10.086;2022-09-12T10:04:57;3.28;;;1.30;;
68825;SDS011;55841;53.392;10.086;2022-09-12T10:21:49;4.65;;;1.73;;
68825;SDS011;55841;53.392;10.086;2022-09-12T10:24:20;3.85;;;1.73;;
68825;SDS011;55841;53.392;10.086;2022-09-12T10:26:54;3.90;;;1.60;;
68825;SDS011;55841;53.392;10.086;2022-09-12T10:29:28;5.15;;;1.73;;
68825;SDS011;55841;53.392;10.086;2022-09-12T10:31:58;6.07;;;1.70;;
68825;SDS011;55841;53.392;10.086;2022-09-12T10:34:28;2.90;;;1.50;;
68825;SDS011;55841;53.392;10.086;2022-09-12T10:37:18;4.18;;;1.70;;
68825;SDS011;55841;53.392;10.086;2022-09-12T10:39:50;4.60;;;1.70;;
68825;SDS011;55841;53.392;10.086;2022-09-12T10:42:40;4.38;;;1.92;;
68825;SDS011;55841;53.392;10.086;2022-09-12T10:45:28;3.35;;;1.88;;
68825;SDS011;55841;53.392;10.086;2022-09-12T10:47:56;4.65;;;1.70;;
68825;SDS011;55841;53.392;10.086;2022-09-12T10:50:45;4.43;;;1.73;;
68825;SDS011;55841;53.392;10.086;2022-09-12T10:53:12;3.53;;;1.80;;
68825;SDS011;55841;53.392;10.086;2022-09-12T10:55:47;4.25;;;1.85;;
68825;SDS011;55841;53.392;10.086;2022-09-12T10:58:55;3.28;;;1.58;;
68825;SDS011;55841;53.392;10.086;2022-09-12T11:49:40;4.40;;;1.80;;
68825;SDS011;55841;53.392;10.086;2022-09-12T11:52:16;3.03;;;1.67;;
68825;SDS011;55841;53.392;10.086;2022-09-12T11:54:52;4.03;;;1.80;;
68825;SDS011;55841;53.392;10.086;2022-09-12T12:20:38;4.00;;;1.70;;
68825;SDS011;55841;53.392;10.086;2022-09-12T12:26:02;5.97;;;1.80;;
68825;SDS011;55841;53.392;10.086;2022-09-12T12:37:43;3.30;;;1.60;;
68825;SDS011;55841;53.392;10.086;2022-09-12T12:40:20;3.92;;;1.80;;
68825;SDS011;55841;53.392;10.086;2022-09-12T12:43:00;5.55;;;2.00;;
68825;SDS011;55841;53.392;10.086;2022-09-12T12:47:54;4.00;;;1.88;;
68825;SDS011;55841;53.392;10.086;2022-09-12T12:50:52;3.85;;;1.90;;
68825;SDS011;55841;53.392;10.086;2022-09-12T12:53:23;5.93;;;2.45;;
68825;SDS011;55841;53.392;10.086;2022-09-12T12:59:20;4.53;;;2.00;;
68825;SDS011;55841;53.392;10.086;2022-09-12T13:01:56;3.85;;;1.77;;
68825;SDS011;55841;53.392;10.086;2022-09-12T13:04:24;2.85;;;1.70;;
68825;SDS011;55841;53.392;10.086;2022-09-12T13:44:25;3.92;;;1.60;;
68825;SDS011;55841;53.392;10.086;2022-09-12T13:47:42;4.68;;;2.05;;
68825;SDS011;55841;53.392;10.086;2022-09-12T13:50:23;3.90;;;1.90;;
68825;SDS011;55841;53.392;10.086;2022-09-12T13:53:12;5.03;;;2.00;;
68825;SDS011;55841;53.392;10.086;2022-09-12T13:55:51;5.10;;;1.98;;
68825;SDS011;55841;53.392;10.086;2022-09-12T13:58:21;5.88;;;2.30;;
68825;SDS011;55841;53.392;10.086;2022-09-12T14:01:11;5.55;;;2.00;;
68825;SDS011;55841;53.392;10.086;2022-09-12T14:03:51;4.88;;;1.92;;
68825;SDS011;55841;53.392;10.086;2022-09-12T14:06:18;5.03;;;2.05;;
68825;SDS011;55841;53.392;10.086;2022-09-12T14:08:46;5.38;;;1.95;;
68825;SDS011;55841;53.392;10.086;2022-09-12T14:18:22;6.82;;;2.30;;
68825;SDS011;55841;53.392;10.086;2022-09-12T14:24:37;6.85;;;2.72;;
68825;SDS011;55841;53.392;10.086;2022-09-12T14:27:09;6.15;;;2.25;;
68825;SDS011;55841;53.392;10.086;2022-09-12T14:29:35;7.97;;;2.78;;
68825;SDS011;55841;53.392;10.086;2022-09-12T14:32:22;6.05;;;2.35;;
68825;SDS011;55841;53.392;10.086;2022-09-12T14:37:56;6.65;;;2.40;;
68825;SDS011;55841;53.392;10.086;2022-09-12T14:40:59;7.00;;;2.50;;
68825;SDS011;55841;53.392;10.086;2022-09-12T14:43:31;4.95;;;2.33;;
68825;SDS011;55841;53.392;10.086;2022-09-12T14:49:32;5.60;;;2.40;;
68825;SDS011;55841;53.392;10.086;2022-09-12T14:52:00;7.18;;;2.78;;
68825;SDS011;55841;53.392;10.086;2022-09-12T14:57:27;6.95;;;2.42;;
68825;SDS011;55841;53.392;10.086;2022-09-12T15:02:41;5.65;;;2.53;;
68825;SDS011;55841;53.392;10.086;2022-09-12T15:10:24;7.38;;;2.83;;
68825;SDS011;55841;53.392;10.086;2022-09-12T15:15:32;5.95;;;2.70;;
68825;SDS011;55841;53.392;10.086;2022-09-12T15:17:58;7.45;;;2.65;;
68825;SDS011;55841;53.392;10.086;2022-09-12T15:22:49;5.63;;;2.50;;
68825;SDS011;55841;53.392;10.086;2022-09-12T15:25:15;7.15;;;2.53;;
68825;SDS011;55841;53.392;10.086;2022-09-12T15:30:07;5.95;;;2.50;;
68825;SDS011;55841;53.392;10.086;2022-09-12T15:32:33;6.85;;;2.70;;
68825;SDS011;55841;53.392;10.086;2022-09-12T15:34:59;6.80;;;2.92;;
68825;SDS011;55841;53.392;10.086;2022-09-12T15:39:50;7.85;;;2.95;;
68825;SDS011;55841;53.392;10.086;2022-09-12T15:44:43;6.78;;;2.75;;
68825;SDS011;55841;53.392;10.086;2022-09-12T15:49:36;6.47;;;2.85;;
68825;SDS011;55841;53.392;10.086;2022-09-12T15:54:27;6.32;;;2.65;;
68825;SDS011;55841;53.392;10.086;2022-09-12T15:56:53;7.22;;;2.83;;
68825;SDS011;55841;53.392;10.086;2022-09-12T16:01:44;5.47;;;2.70;;
68825;SDS011;55841;53.392;10.086;2022-09-12T16:06:48;6.25;;;2.80;;
68825;SDS011;55841;53.392;10.086;2022-09-12T16:09:15;11.30;;;2.90;;
68825;SDS011;55841;53.392;10.086;2022-09-12T16:14:08;7.05;;;2.88;;
68825;SDS011;55841;53.392;10.086;2022-09-12T16:16:37;7.20;;;2.78;;
68825;SDS011;55841;53.392;10.086;2022-09-12T16:21:28;7.63;;;3.00;;
68825;SDS011;55841;53.392;10.086;2022-09-12T16:26:19;6.90;;;2.75;;
68825;SDS011;55841;53.392;10.086;2022-09-12T16:31:10;7.55;;;3.05;;
68825;SDS011;55841;53.392;10.086;2022-09-12T16:33:37;6.75;;;2.83;;
68825;SDS011;55841;53.392;10.086;2022-09-12T16:38:33;6.70;;;2.75;;
68825;SDS011;55841;53.392;10.086;2022-09-12T16:41:04;9.55;;;3.42;;
68825;SDS011;55841;53.392;10.086;2022-09-12T16:43:31;7.35;;;3.20;;
68825;SDS011;55841;53.392;10.086;2022-09-12T16:45:59;7.78;;;3.13;;
68825;SDS011;55841;53.392;10.086;2022-09-12T16:48:25;6.65;;;2.78;;
68825;SDS011;55841;53.392;10.086;2022-09-12T16:53:20;7.70;;;2.97;;
68825;SDS011;55841;53.392;10.086;2022-09-12T16:58:14;10.52;;;2.97;;
68825;SDS011;55841;53.392;10.086;2022-09-12T17:03:05;7.72;;;3.20;;
68825;SDS011;55841;53.392;10.086;2022-09-12T17:05:30;6.85;;;3.08;;
68825;SDS011;55841;53.392;10.086;2022-09-12T17:07:56;8.88;;;3.25;;
68825;SDS011;55841;53.392;10.086;2022-09-12T17:10:21;7.65;;;3.20;;
68825;SDS011;55841;53.392;10.086;2022-09-12T17:12:46;7.78;;;2.92;;
68825;SDS011;55841;53.392;10.086;2022-09-12T17:15:12;7.95;;;3.45;;
68825;SDS011;55841;53.392;10.086;2022-09-12T17:17:38;8.75;;;3.50;;
68825;SDS011;55841;53.392;10.086;2022-09-12T17:20:03;8.40;;;3.38;;
68825;SDS011;55841;53.392;10.086;2022-09-12T17:22:29;9.20;;;3.30;;
68825;SDS011;55841;53.392;10.086;2022-09-12T17:24:54;8.20;;;3.38;;
68825;SDS011;55841;53.392;10.086;2022-09-12T17:27:20;8.25;;;3.65;;
68825;SDS011;55841;53.392;10.086;2022-09-12T17:29:45;9.52;;;3.80;;
68825;SDS011;55841;53.392;10.086;2022-09-12T17:32:11;8.07;;;3.50;;
68825;SDS011;55841;53.392;10.086;2022-09-12T17:34:36;8.85;;;3.63;;
68825;SDS011;55841;53.392;10.086;2022-09-12T17:37:02;9.65;;;3.63;;
68825;SDS011;55841;53.392;10.086;2022-09-12T17:39:27;9.15;;;3.17;;
68825;SDS011;55841;53.392;10.086;2022-09-12T17:41:53;8.43;;;3.40;;
68825;SDS011;55841;53.392;10.086;2022-09-12T17:44:18;8.18;;;3.70;;
68825;SDS011;55841;53.392;10.086;2022-09-12T17:46:44;8.75;;;3.72;;
68825;SDS011;55841;53.392;10.086;2022-09-12T17:49:13;9.32;;;3.38;;
68825;SDS011;55841;53.392;10.086;2022-09-12T17:51:40;10.10;;;4.00;;
68825;SDS011;55841;53.392;10.086;2022-09-12T17:54:08;9.65;;;3.97;;
68825;SDS011;55841;53.392;10.086;2022-09-12T17:56:37;9.55;;;4.03;;
68825;SDS011;55841;53.392;10.086;2022-09-12T17:59:03;9.68;;;4.03;;
68825;SDS011;55841;53.392;10.086;2022-09-12T18:01:29;9.57;;;3.90;;
68825;SDS011;55841;53.392;10.086;2022-09-12T18:03:55;12.38;;;3.90;;
68825;SDS011;55841;53.392;10.086;2022-09-12T18:06:22;10.05;;;3.80;;
68825;SDS011;55841;53.392;10.086;2022-09-12T18:08:48;8.88;;;3.42;;
68825;SDS011;55841;53.392;10.086;2022-09-12T18:11:14;9.20;;;3.78;;
68825;SDS011;55841;53.392;10.086;2022-09-12T18:13:39;8.20;;;3.60;;
68825;SDS011;55841;53.392;10.086;2022-09-12T18:16:05;9.80;;;3.65;;
68825;SDS011;55841;53.392;10.086;2022-09-12T18:18:33;9.20;;;3.55;;
68825;SDS011;55841;53.392;10.086;2022-09-12T18:21:00;8.40;;;3.72;;
68825;SDS011;55841;53.392;10.086;2022-09-12T18:23:29;9.38;;;3.67;;
68825;SDS011;55841;53.392;10.086;2022-09-12T18:25:58;9.20;;;3.60;;
68825;SDS011;55841;53.392;10.086;2022-09-12T18:28:30;10.45;;;3.63;;
68825;SDS011;55841;53.392;10.086;2022-09-12T18:30:57;8.57;;;3.83;;
68825;SDS011;55841;53.392;10.086;2022-09-12T18:33:22;9.95;;;3.92;;
68825;SDS011;55841;53.392;10.086;2022-09-12T18:35:48;8.88;;;3.58;;
68825;SDS011;55841;53.392;10.086;2022-09-12T18:38:13;8.32;;;3.78;;
68825;SDS011;55841;53.392;10.086;2022-09-12T18:40:39;8.40;;;3.35;;
68825;SDS011;55841;53.392;10.086;2022-09-12T18:43:04;12.35;;;3.60;;
68825;SDS011;55841;53.392;10.086;2022-09-12T18:45:30;9.75;;;3.90;;
68825;SDS011;55841;53.392;10.086;2022-09-12T18:47:55;9.13;;;3.70;;
68825;SDS011;55841;53.392;10.086;2022-09-12T18:50:21;8.52;;;3.53;;
68825;SDS011;55841;53.392;10.086;2022-09-12T18:52:46;9.68;;;4.00;;
68825;SDS011;55841;53.392;10.086;2022-09-12T18:55:12;8.85;;;3.50;;
68825;SDS011;55841;53.392;10.086;2022-09-12T18:57:37;9.25;;;3.70;;
68825;SDS011;55841;53.392;10.086;2022-09-12T19:00:03;13.88;;;4.45;;
68825;SDS011;55841;53.392;10.086;2022-09-12T19:02:29;9.20;;;4.30;;
68825;SDS011;55841;53.392;10.086;2022-09-12T19:04:55;9.20;;;3.70;;
68825;SDS011;55841;53.392;10.086;2022-09-12T19:07:20;8.75;;;3.22;;
68825;SDS011;55841;53.392;10.086;2022-09-12T19:09:46;9.50;;;3.70;;
68825;SDS011;55841;53.392;10.086;2022-09-12T19:12:11;10.38;;;3.72;;
68825;SDS011;55841;53.392;10.086;2022-09-12T19:14:37;7.97;;;3.67;;
68825;SDS011;55841;53.392;10.086;2022-09-12T19:17:02;8.18;;;3.67;;
68825;SDS011;55841;53.392;10.086;2022-09-12T19:19:28;8.93;;;3.58;;
68825;SDS011;55841;53.392;10.086;2022-09-12T19:21:54;8.55;;;3.55;;
68825;SDS011;55841;53.392;10.086;2022-09-12T19:24:19;9.95;;;3.55;;
68825;SDS011;55841;53.392;10.086;2022-09-12T19:26:45;9.30;;;3.35;;
68825;SDS011;55841;53.392;10.086;2022-09-12T19:29:10;7.75;;;3.08;;
68825;SDS011;55841;53.392;10.086;2022-09-12T19:31:36;8.43;;;3.28;;
68825;SDS011;55841;53.392;10.086;2022-09-12T19:34:02;9.18;;;3.60;;
68825;SDS011;55841;53.392;10.086;2022-09-12T19:36:29;9.15;;;3.47;;
68825;SDS011;55841;53.392;10.086;2022-09-12T19:38:55;7.43;;;3.20;;
68825;SDS011;55841;53.392;10.086;2022-09-12T19:41:20;9.27;;;3.85;;
68825;SDS011;55841;53.392;10.086;2022-09-12T19:43:46;9.13;;;3.75;;
68825;SDS011;55841;53.392;10.086;2022-09-12T19:46:14;7.47;;;3.20;;
68825;SDS011;55841;53.392;10.086;2022-09-12T19:48:40;9.18;;;3.88;;
68825;SDS011;55841;53.392;10.086;2022-09-12T19:51:06;8.75;;;3.70;;
68825;SDS011;55841;53.392;10.086;2022-09-12T19:53:31;8.57;;;3.38;;
68825;SDS011;55841;53.392;10.086;2022-09-12T19:56:00;7.38;;;3.70;;
68825;SDS011;55841;53.392;10.086;2022-09-12T19:58:31;9.00;;;3.17;;
68825;SDS011;55841;53.392;10.086;2022-09-12T20:03:32;8.20;;;3.00;;
68825;SDS011;55841;53.392;10.086;2022-09-12T20:06:04;7.93;;;2.70;;
68825;SDS011;55841;53.392;10.086;2022-09-12T20:08:32;7.50;;;3.10;;
68825;SDS011;55841;53.392;10.086;2022-09-12T20:10:58;7.25;;;3.10;;
68825;SDS011;55841;53.392;10.086;2022-09-12T20:13:24;7.03;;;2.85;;
68825;SDS011;55841;53.392;10.086;2022-09-12T20:15:50;7.72;;;3.08;;
68825;SDS011;55841;53.392;10.086;2022-09-12T20:18:15;6.95;;;2.90;;
68825;SDS011;55841;53.392;10.086;2022-09-12T20:20:41;8.25;;;3.10;;
68825;SDS011;55841;53.392;10.086;2022-09-12T20:23:06;8.20;;;3.13;;
68825;SDS011;55841;53.392;10.086;2022-09-12T20:25:32;9.65;;;3.33;;
68825;SDS011;55841;53.392;10.086;2022-09-12T20:27:57;8.38;;;3.28;;
68825;SDS011;55841;53.392;10.086;2022-09-12T20:30:23;7.50;;;3.03;;
68825;SDS011;55841;53.392;10.086;2022-09-12T20:32:48;7.05;;;2.80;;
68825;SDS011;55841;53.392;10.086;2022-09-12T20:35:14;9.45;;;3.17;;
68825;SDS011;55841;53.392;10.086;2022-09-12T20:40:06;10.55;;;3.30;;
68825;SDS011;55841;53.392;10.086;2022-09-12T20:44:57;7.13;;;2.90;;
68825;SDS011;55841;53.392;10.086;2022-09-12T20:47:23;7.38;;;2.88;;
68825;SDS011;55841;53.392;10.086;2022-09-12T20:49:48;7.82;;;3.25;;
68825;SDS011;55841;53.392;10.086;2022-09-12T20:52:14;7.57;;;2.97;;
68825;SDS011;55841;53.392;10.086;2022-09-12T20:54:39;10.60;;;3.72;;
68825;SDS011;55841;53.392;10.086;2022-09-12T20:57:05;8.73;;;3.20;;
68825;SDS011;55841;53.392;10.086;2022-09-12T20:59:30;6.75;;;3.00;;
68825;SDS011;55841;53.392;10.086;2022-09-12T21:01:56;7.18;;;2.88;;
68825;SDS011;55841;53.392;10.086;2022-09-12T21:04:21;8.15;;;3.30;;
68825;SDS011;55841;53.392;10.086;2022-09-12T21:06:47;7.75;;;3.10;;
68825;SDS011;55841;53.392;10.086;2022-09-12T21:09:12;7.57;;;3.22;;
68825;SDS011;55841;53.392;10.086;2022-09-12T21:11:38;8.05;;;3.15;;
68825;SDS011;55841;53.392;10.086;2022-09-12T21:14:04;7.30;;;3.08;;
68825;SDS011;55841;53.392;10.086;2022-09-12T21:16:29;9.80;;;3.22;;
68825;SDS011;55841;53.392;10.086;2022-09-12T21:18:56;8.23;;;3.22;;
68825;SDS011;55841;53.392;10.086;2022-09-12T21:21:22;8.25;;;3.03;;
68825;SDS011;55841;53.392;10.086;2022-09-12T21:23:49;8.55;;;3.47;;
68825;SDS011;55841;53.392;10.086;2022-09-12T21:26:15;7.18;;;3.00;;
68825;SDS011;55841;53.392;10.086;2022-09-12T21:28:41;7.45;;;3.00;;
68825;SDS011;55841;53.392;10.086;2022-09-12T21:31:07;8.75;;;3.58;;
68825;SDS011;55841;53.392;10.086;2022-09-12T21:33:32;9.02;;;3.35;;
68825;SDS011;55841;53.392;10.086;2022-09-12T21:36:02;9.23;;;3.45;;
68825;SDS011;55841;53.392;10.086;2022-09-12T21:38:29;8.65;;;3.55;;
68825;SDS011;55841;53.392;10.086;2022-09-12T21:43:36;8.55;;;3.50;;
68825;SDS011;55841;53.392;10.086;2022-09-12T21:46:03;8.20;;;3.22;;
68825;SDS011;55841;53.392;10.086;2022-09-12T21:48:29;8.95;;;3.72;;
68825;SDS011;55841;53.392;10.086;2022-09-12T21:50:56;8.48;;;3.53;;
68825;SDS011;55841;53.392;10.086;2022-09-12T21:53:21;7.68;;;3.10;;
68825;SDS011;55841;53.392;10.086;2022-09-12T21:55:47;8.80;;;3.42;;
68825;SDS011;55841;53.392;10.086;2022-09-12T21:58:13;8.23;;;3.03;;
68825;SDS011;55841;53.392;10.086;2022-09-12T22:00:41;10.48;;;3.35;;
68825;SDS011;55841;53.392;10.086;2022-09-12T22:03:08;8.13;;;3.10;;
68825;SDS011;55841;53.392;10.086;2022-09-12T22:05:34;10.95;;;3.05;;
68825;SDS011;55841;53.392;10.086;2022-09-12T22:08:00;8.85;;;2.97;;
68825;SDS011;55841;53.392;10.086;2022-09-12T22:10:26;7.60;;;2.83;;
68825;SDS011;55841;53.392;10.086;2022-09-12T22:15:17;6.85;;;3.00;;
68825;SDS011;55841;53.392;10.086;2022-09-12T22:17:43;7.13;;;2.70;;
68825;SDS011;55841;53.392;10.086;2022-09-12T22:20:09;8.88;;;2.65;;
68825;SDS011;55841;53.392;10.086;2022-09-12T22:22:35;7.07;;;2.65;;
68825;SDS011;55841;53.392;10.086;2022-09-12T22:25:00;6.90;;;2.78;;
68825;SDS011;55841;53.392;10.086;2022-09-12T22:27:26;9.48;;;2.80;;